Antalya, Turkey

5:17 PM EEST on September 26, 2016 (GMT +0300)
Antalya | | Change Station

Elev 174 ft 36.90 °N, 30.80 °E | Updated 27 minutes ago

Scattered Clouds
Scattered Clouds
79 °F
Feels Like 79 °F
N
9
Wind Variable Wind from South

Today
High -- | Low -- °F
--% Chance of Precip.
Yesterday
High -- | Low -- °F
Precip. -- in
Pressure 29.86 in
Visibility 6.2 miles
Clouds Few 3000 ft
Scattered Clouds 20000 ft
Dew Point 57 °F
Humidity 47%
Rainfall 0.00 in
Snow Depth Not available.
6:48 AM 6:47 PM
Waning Crescent, 18% visible
METAR LTAI 261350Z 18008KT 150V210 9999 FEW030 SCT200 26/14 Q1011 NOSIG RMK RWY18C 17009KT RWY36R 18007KT RWY18L 18008KT 140V220
Pressure 29.86 in
Visibility 6.2 miles
Clouds Few 3000 ft
Scattered Clouds 20000 ft
Dew Point 57 °F
Humidity 47%
Rainfall 0.00 in
Snow Depth Not available.
6:48 AM 6:47 PM
Waning Crescent, 18% visible
METAR LTAI 261350Z 18008KT 150V210 9999 FEW030 SCT200 26/14 Q1011 NOSIG RMK RWY18C 17009KT RWY36R 18007KT RWY18L 18008KT 140V220

10-Day Weather Forecast

×

Almanac

Astronomy

Sep. 26, 2016 Rise Set
Actual Time
Civil Twilight
Nautical Twilight
Astronomical Twilight
Moon
Length of Visible Light
Length of Day
Tomorrow will be .
, % of the Moon is Illuminated

Today's Extremes

Country Highs Country Lows

Community

WunderPhotos

Upload Photos

1,941,887 photos uploaded!

WunderBlog® & News

Nearby

Air Quality

  Air Quality AQ Index Pollutant
Not available.

Snow Depth

Station Depth Elevation

Earthquake Activity

City Distance Mag. Time & Date
Minimum magnitude displayed is 2.5.

Coastal Water Temperatures

Place Temperature

Stations

Nearby Weather Stations

Station Location Temp. Windchill Dew Point Humidity Wind Precip. Elev Updated Type